Time;durP1;ratioP1;P1;durP2;ratioP2;P2;SDS_P1;SDS_P2;PMS_P1;PMS_P2;Temp;Humidity;BMP_temperature;BMP_pressure;BME280_temperature;BME280_humidity;BME280_pressure;Samples;Min_cycle;Max_cycle;Signal;HPM_P1;HPM_P2
2021/12/12 00:02:25;;;;;;;7.95;4.85;;;10.80;99.90;;;;;;5024253;28;20067;-60
2021/12/12 00:04:52;;;;;;;10.90;4.28;;;10.80;99.90;;;;;;5052221;28;20072;-60
2021/12/12 00:07:25;;;;;;;12.35;3.88;;;10.80;99.90;;;;;;5040739;28;20084;-61
2021/12/12 00:09:55;;;;;;;6.82;4.20;;;10.80;99.90;;;;;;5055493;28;20068;-60
2021/12/12 00:12:24;;;;;;;14.27;4.93;;;10.80;99.90;;;;;;5040861;28;20049;-62
2021/12/12 00:14:51;;;;;;;6.35;3.60;;;10.80;99.90;;;;;;5052815;28;20053;-60
2021/12/12 00:17:18;;;;;;;10.68;4.10;;;10.80;99.90;;;;;;5020087;28;20080;-60
2021/12/12 00:19:45;;;;;;;9.00;3.53;;;10.80;99.90;;;;;;5048545;28;20049;-62
2021/12/12 00:22:16;;;;;;;13.07;4.10;;;10.80;99.90;;;;;;5026525;28;20053;-61
2021/12/12 00:24:43;;;;;;;15.85;4.10;;;10.90;99.90;;;;;;5021263;28;20130;-62
2021/12/12 00:27:10;;;;;;;16.42;7.30;;;10.90;99.90;;;;;;5042001;28;20102;-61
2021/12/12 00:29:37;;;;;;;11.38;3.50;;;10.90;99.90;;;;;;5045713;28;20046;-61
2021/12/12 00:32:10;;;;;;;15.73;5.25;;;10.90;99.90;;;;;;5038300;28;20080;-61
2021/12/12 00:34:42;;;;;;;12.88;3.35;;;10.90;99.90;;;;;;5048159;28;20049;-63
2021/12/12 00:37:10;;;;;;;13.43;4.38;;;10.90;99.90;;;;;;5051572;28;20080;-60
2021/12/12 00:39:38;;;;;;;12.63;2.97;;;10.90;99.90;;;;;;5050797;28;20052;-62
2021/12/12 00:42:14;;;;;;;9.00;3.08;;;10.90;99.90;;;;;;5055869;28;20049;-61
2021/12/12 00:44:43;;;;;;;8.65;3.08;;;11.00;99.90;;;;;;5022402;28;20049;-61
2021/12/12 00:47:10;;;;;;;6.85;2.63;;;11.00;99.90;;;;;;5043345;28;20081;-60
2021/12/12 00:49:38;;;;;;;11.23;3.20;;;11.00;99.90;;;;;;5046323;28;20068;-62
2021/12/12 00:52:06;;;;;;;9.95;3.63;;;11.00;99.90;;;;;;5031810;28;20045;-62
2021/12/12 00:54:34;;;;;;;8.48;3.17;;;11.00;99.90;;;;;;5037166;28;20048;-62
2021/12/12 00:57:03;;;;;;;9.25;3.38;;;11.00;99.90;;;;;;5055520;28;20155;-61
2021/12/12 00:59:29;;;;;;;8.15;3.00;;;11.00;99.90;;;;;;5043048;28;20205;-62
2021/12/12 01:01:57;;;;;;;9.27;2.65;;;11.00;99.90;;;;;;5057297;28;20140;-62
2021/12/12 01:04:29;;;;;;;8.60;2.35;;;11.00;99.90;;;;;;5048917;28;20095;-62
2021/12/12 01:06:57;;;;;;;9.60;2.60;;;11.00;99.90;;;;;;5031095;28;20091;-62
2021/12/12 01:09:27;;;;;;;17.45;3.85;;;11.00;99.90;;;;;;5025235;28;20072;-62
2021/12/12 01:11:56;;;;;;;13.18;3.17;;;11.00;99.90;;;;;;5052202;28;20099;-62
2021/12/12 01:14:28;;;;;;;10.93;2.80;;;11.00;99.90;;;;;;5038621;28;20107;-62
2021/12/12 01:16:58;;;;;;;9.27;2.92;;;11.10;99.90;;;;;;5035862;28;20041;-61
2021/12/12 01:19:35;;;;;;;13.38;4.55;;;11.10;99.90;;;;;;5041567;28;20045;-61
2021/12/12 01:22:11;;;;;;;11.90;5.00;;;11.00;99.90;;;;;;5053485;28;20427;-62
2021/12/12 01:24:42;;;;;;;14.68;2.90;;;11.00;99.90;;;;;;5040995;28;20048;-61
2021/12/12 01:27:09;;;;;;;18.83;3.08;;;11.00;99.90;;;;;;5053264;28;20102;-60
2021/12/12 01:29:36;;;;;;;8.23;4.15;;;11.00;99.90;;;;;;5041444;28;20088;-60
2021/12/12 01:32:04;;;;;;;12.55;3.63;;;11.00;99.90;;;;;;5053990;28;20080;-61
2021/12/12 01:34:32;;;;;;;12.63;3.00;;;11.00;99.90;;;;;;4704630;28;10000692;-61
2021/12/12 01:39:31;;;;;;;11.32;2.30;;;11.00;99.90;;;;;;5040734;28;20496;-62
2021/12/12 01:42:02;;;;;;;15.20;4.07;;;11.00;99.90;;;;;;5051055;28;20045;-61
2021/12/12 01:44:58;;;;;;;15.38;2.90;;;11.00;99.90;;;;;;5047312;28;20123;-62
2021/12/12 01:47:34;;;;;;;15.55;3.53;;;11.00;99.90;;;;;;5046291;28;20073;-60
2021/12/12 01:50:06;;;;;;;15.20;3.08;;;11.00;99.90;;;;;;5053924;28;20484;-62
2021/12/12 01:52:33;;;;;;;21.88;6.15;;;10.90;99.90;;;;;;5050313;28;20487;-61
2021/12/12 01:55:21;;;;;;;10.82;2.78;;;10.90;99.90;;;;;;5044598;28;20058;-61
2021/12/12 01:57:48;;;;;;;16.33;3.30;;;10.80;99.90;;;;;;5039941;28;20045;-60
2021/12/12 02:00:32;;;;;;;20.67;3.22;;;10.80;99.90;;;;;;5040158;28;20049;-61
2021/12/12 02:02:59;;;;;;;;;;;10.80;99.90;;;;;;5049675;28;20080;-62
2021/12/12 02:05:26;;;;;;;15.13;4.03;;;10.80;99.90;;;;;;5047797;28;20415;-62
2021/12/12 02:07:59;;;;;;;19.50;3.25;;;10.80;99.90;;;;;;5040517;28;20045;-62
2021/12/12 02:10:32;;;;;;;20.20;4.22;;;10.80;99.90;;;;;;5049416;28;20124;-61
2021/12/12 02:13:03;;;;;;;26.67;4.33;;;10.80;99.90;;;;;;5051381;28;20048;-61
2021/12/12 02:15:31;;;;;;;23.73;5.68;;;10.90;99.90;;;;;;5044459;28;20049;-61
2021/12/12 02:17:58;;;;;;;15.98;4.30;;;10.80;99.90;;;;;;5042262;28;20095;-61
2021/12/12 02:20:41;;;;;;;19.77;5.13;;;10.80;99.90;;;;;;5048931;28;20045;-61
2021/12/12 02:36:52;;;;;;;24.55;4.45;;;10.90;99.90;;;;;;5040425;28;20068;-61
2021/12/12 02:39:21;;;;;;;26.00;4.93;;;10.80;99.90;;;;;;5033849;28;20053;-60
2021/12/12 02:41:54;;;;;;;108.88;9.68;;;10.80;99.90;;;;;;5041845;28;20041;-61
2021/12/12 02:44:23;;;;;;;26.45;4.63;;;10.90;99.90;;;;;;5024644;28;20552;-61
2021/12/12 02:46:50;;;;;;;20.17;3.88;;;10.90;99.90;;;;;;5034751;28;20102;-60
2021/12/12 02:49:39;;;;;;;25.00;3.97;;;10.80;99.90;;;;;;5020917;28;20119;-60
2021/12/12 02:52:09;;;;;;;19.50;5.70;;;10.90;99.90;;;;;;5040614;28;20472;-61
2021/12/12 02:54:36;;;;;;;18.55;4.40;;;10.90;99.90;;;;;;5039329;28;20476;-61
2021/12/12 02:57:03;;;;;;;23.33;3.55;;;10.90;99.90;;;;;;5039818;28;20414;-62
2021/12/12 02:59:30;;;;;;;25.13;3.33;;;10.90;99.90;;;;;;5042927;28;20045;-61
2021/12/12 03:02:06;;;;;;;21.85;4.50;;;10.90;99.90;;;;;;5041788;28;20041;-59
2021/12/12 03:04:33;;;;;;;16.92;3.50;;;10.90;99.90;;;;;;5050283;28;20096;-62
2021/12/12 03:07:00;;;;;;;24.92;4.00;;;10.90;99.90;;;;;;5042109;28;20084;-60
2021/12/12 03:09:28;;;;;;;27.05;3.95;;;10.90;99.90;;;;;;5048641;28;20045;-61
2021/12/12 03:12:03;;;;;;;25.05;3.90;;;10.90;99.90;;;;;;5043100;28;20046;-61
2021/12/12 03:14:32;;;;;;;24.98;5.50;;;10.90;99.90;;;;;;5041363;28;20106;-60
2021/12/12 03:17:04;;;;;;;26.25;3.63;;;10.90;99.90;;;;;;5054791;28;20087;-61
2021/12/12 03:19:31;;;;;;;16.13;2.95;;;10.90;99.90;;;;;;5043903;28;20045;-61
2021/12/12 03:21:58;;;;;;;18.75;3.80;;;10.90;99.90;;;;;;5051538;28;20048;-61
2021/12/12 03:24:25;;;;;;;13.27;3.05;;;10.90;99.90;;;;;;5047907;28;20052;-61
2021/12/12 03:26:55;;;;;;;19.85;3.63;;;10.90;99.90;;;;;;5054467;28;20643;-61
2021/12/12 03:29:22;;;;;;;20.70;3.80;;;10.90;99.90;;;;;;5040472;28;20049;-61
2021/12/12 03:31:52;;;;;;;18.70;3.95;;;10.90;99.90;;;;;;5055010;28;20073;-61
2021/12/12 03:34:21;;;;;;;17.27;3.78;;;10.90;99.90;;;;;;5029425;28;20080;-61
2021/12/12 03:36:49;;;;;;;7.95;2.63;;;11.00;99.90;;;;;;5054161;28;20463;-62
2021/12/12 03:39:27;;;;;;;17.58;3.15;;;11.00;99.90;;;;;;5038164;28;20563;-62
2021/12/12 03:41:56;;;;;;;10.75;2.75;;;11.00;99.90;;;;;;5050169;28;20103;-61
2021/12/12 03:44:24;;;;;;;15.63;3.65;;;11.00;99.90;;;;;;5036607;28;20085;-61
2021/12/12 03:46:55;;;;;;;13.27;3.25;;;11.00;99.90;;;;;;5051916;28;20045;-61
2021/12/12 03:49:23;;;;;;;15.38;3.30;;;11.10;99.90;;;;;;5025907;28;20053;-60
2021/12/12 03:51:50;;;;;;;14.05;3.03;;;11.10;99.90;;;;;;5043329;28;20481;-60
2021/12/12 03:54:17;;;;;;;9.25;3.58;;;11.00;99.90;;;;;;5051467;28;20102;-62
2021/12/12 03:56:44;;;;;;;13.40;2.88;;;11.10;99.90;;;;;;5040557;28;20115;-62
2021/12/12 03:59:11;;;;;;;15.65;3.22;;;11.10;99.90;;;;;;5042540;28;20054;-61
2021/12/12 04:01:41;;;;;;;16.38;3.97;;;11.10;99.90;;;;;;5050157;28;20036;-62
2021/12/12 04:04:20;;;;;;;6.90;2.97;;;11.10;99.90;;;;;;5046561;28;20049;-62
2021/12/12 04:06:48;;;;;;;10.20;3.78;;;11.10;99.90;;;;;;5022151;28;20078;-62
2021/12/12 04:09:15;;;;;;;14.52;3.78;;;11.10;99.90;;;;;;5038214;28;20103;-61
2021/12/12 04:11:47;;;;;;;10.40;3.58;;;11.20;99.90;;;;;;5049424;28;20471;-62
2021/12/12 04:14:14;;;;;;;11.80;3.75;;;11.20;99.90;;;;;;5037359;28;20046;-61
2021/12/12 04:16:43;;;;;;;14.27;3.60;;;11.20;99.90;;;;;;5046405;28;20067;-62
2021/12/12 04:19:10;;;;;;;15.98;4.10;;;11.20;99.90;;;;;;5049803;28;20081;-61
2021/12/12 04:21:37;;;;;;;11.60;3.55;;;11.20;99.90;;;;;;5039151;28;20092;-60
2021/12/12 04:24:04;;;;;;;14.45;3.42;;;11.30;99.90;;;;;;5051042;28;20084;-60
2021/12/12 04:26:38;;;;;;;11.80;4.25;;;11.20;99.90;;;;;;5044956;28;20045;-61
2021/12/12 04:29:05;;;;;;;8.85;3.50;;;11.30;99.90;;;;;;5019117;28;20050;-60
2021/12/12 04:31:31;;;;;;;12.52;4.22;;;11.30;99.90;;;;;;5032221;28;20466;-60
2021/12/12 04:33:59;;;;;;;9.60;3.42;;;11.30;99.90;;;;;;5048807;28;20439;-60
2021/12/12 04:36:31;;;;;;;10.38;3.35;;;11.40;99.90;;;;;;5041418;28;20045;-60
2021/12/12 04:39:02;;;;;;;7.82;3.08;;;11.40;99.90;;;;;;5049279;28;20138;-61
2021/12/12 04:41:29;;;;;;;7.07;2.83;;;11.40;99.90;;;;;;5042477;28;20627;-61
2021/12/12 04:43:56;;;;;;;7.28;3.45;;;11.40;99.90;;;;;;5039807;28;20050;-61
2021/12/12 04:46:26;;;;;;;8.57;2.90;;;11.40;99.90;;;;;;5039427;28;20077;-60
2021/12/12 04:51:43;;;;;;;6.22;2.88;;;11.50;99.90;;;;;;5049009;28;20094;-61
2021/12/12 04:54:15;;;;;;;9.20;4.25;;;11.50;99.90;;;;;;5056097;28;20052;-61
2021/12/12 04:57:00;;;;;;;6.47;2.17;;;11.50;99.90;;;;;;5021904;28;20092;-61
2021/12/12 04:59:35;;;;;;;5.10;2.72;;;11.60;99.90;;;;;;5057340;28;20055;-61
2021/12/12 05:02:17;;;;;;;7.05;2.72;;;11.50;99.90;;;;;;5043804;28;20106;-60
2021/12/12 05:04:57;;;;;;;7.75;2.75;;;11.60;99.90;;;;;;5055067;28;20048;-59
2021/12/12 05:07:37;;;;;;;6.78;2.80;;;11.60;99.90;;;;;;5039985;28;20057;-60
2021/12/12 05:10:07;;;;;;;6.18;2.40;;;11.60;99.90;;;;;;5029852;28;20057;-60
2021/12/12 05:12:37;;;;;;;7.10;2.47;;;11.60;99.90;;;;;;5046915;28;20069;-60
2021/12/12 05:15:18;;;;;;;4.68;2.30;;;11.60;99.90;;;;;;5034271;28;20080;-61
2021/12/12 05:17:54;;;;;;;5.18;2.33;;;11.60;99.90;;;;;;5034774;28;20080;-60
2021/12/12 05:20:33;;;;;;;3.58;1.80;;;11.70;99.90;;;;;;5023756;28;20048;-60
2021/12/12 05:23:06;;;;;;;5.78;2.47;;;11.70;99.90;;;;;;5026450;28;20157;-60
2021/12/12 05:25:41;;;;;;;6.40;2.83;;;11.70;99.90;;;;;;5057663;28;20075;-60
2021/12/12 05:28:08;;;;;;;6.38;2.13;;;11.70;99.90;;;;;;5040460;28;20106;-60
2021/12/12 05:30:35;;;;;;;7.80;2.65;;;11.70;99.90;;;;;;5038442;28;20110;-61
2021/12/12 05:33:02;;;;;;;4.88;2.33;;;11.70;99.90;;;;;;5031626;28;20107;-60
2021/12/12 05:35:32;;;;;;;4.07;1.95;;;11.80;99.90;;;;;;5031862;28;20624;-60
2021/12/12 05:38:04;;;;;;;3.65;1.63;;;11.80;99.90;;;;;;5034869;28;20542;-61
2021/12/12 05:40:32;;;;;;;5.60;2.80;;;11.80;99.90;;;;;;5052065;28;20492;-60
2021/12/12 05:43:00;;;;;;;6.45;2.30;;;11.90;99.90;;;;;;5023623;28;20611;-60
2021/12/12 05:45:27;;;;;;;5.53;2.45;;;11.90;99.90;;;;;;5049934;28;20100;-60
2021/12/12 05:47:54;;;;;;;6.28;2.05;;;11.90;99.90;;;;;;5043866;28;20065;-60
2021/12/12 05:50:21;;;;;;;6.50;2.22;;;11.90;99.90;;;;;;5047737;28;20106;-62
2021/12/12 05:52:53;;;;;;;4.32;2.08;;;11.90;99.90;;;;;;5043695;28;20167;-63
2021/12/12 05:55:23;;;;;;;5.45;2.40;;;11.90;99.90;;;;;;5023242;28;20224;-60
2021/12/12 05:57:54;;;;;;;7.03;2.33;;;12.00;99.90;;;;;;5043593;28;20103;-61
2021/12/12 06:00:25;;;;;;;3.78;1.70;;;12.00;99.90;;;;;;5042772;28;20110;-60
2021/12/12 06:02:53;;;;;;;4.90;2.17;;;12.00;99.90;;;;;;5046045;28;20123;-62
2021/12/12 06:05:20;;;;;;;6.72;1.95;;;12.00;99.90;;;;;;5048854;28;20094;-62
2021/12/12 06:07:47;;;;;;;4.57;2.00;;;12.10;99.90;;;;;;5051252;28;20106;-61
2021/12/12 06:10:14;;;;;;;7.10;2.45;;;12.10;99.90;;;;;;5041942;28;20075;-61
2021/12/12 06:12:41;;;;;;;6.10;1.80;;;12.10;99.90;;;;;;5047526;28;20068;-62
2021/12/12 06:15:09;;;;;;;2.42;1.48;;;12.10;99.90;;;;;;5033584;28;20094;-61
2021/12/12 06:17:37;;;;;;;4.65;1.42;;;12.10;99.90;;;;;;5040981;28;20055;-61
2021/12/12 06:20:07;;;;;;;4.22;2.17;;;12.20;99.90;;;;;;5034035;28;20071;-61
2021/12/12 06:22:34;;;;;;;4.03;1.50;;;12.10;99.90;;;;;;5056244;28;20053;-59
2021/12/12 06:25:00;;;;;;;6.32;1.90;;;12.20;99.90;;;;;;5032216;28;20076;-60
2021/12/12 06:27:29;;;;;;;4.40;1.67;;;12.20;99.90;;;;;;5051358;28;20106;-60
2021/12/12 06:29:56;;;;;;;5.78;2.65;;;12.20;99.90;;;;;;5049032;28;20057;-60
2021/12/12 06:32:22;;;;;;;5.60;1.77;;;12.20;99.90;;;;;;5050173;28;20072;-60
2021/12/12 06:34:50;;;;;;;5.15;1.45;;;12.20;99.90;;;;;;5043661;28;20045;-60
2021/12/12 06:37:16;;;;;;;7.53;1.35;;;12.20;99.90;;;;;;5025138;28;20106;-60
2021/12/12 06:39:44;;;;;;;6.82;1.88;;;12.20;99.90;;;;;;5039270;28;20049;-60
2021/12/12 06:42:11;;;;;;;4.63;1.33;;;12.30;99.90;;;;;;5012663;28;20049;-59
2021/12/12 06:44:39;;;;;;;4.30;1.85;;;12.20;99.90;;;;;;5050059;28;20049;-59
2021/12/12 06:47:08;;;;;;;4.82;1.50;;;12.30;99.90;;;;;;5054839;28;20072;-59
2021/12/12 06:49:35;;;;;;;5.75;2.03;;;12.30;99.90;;;;;;5050858;28;20495;-60
2021/12/12 06:52:04;;;;;;;11.23;1.92;;;12.30;99.90;;;;;;5042410;28;20486;-60
2021/12/12 06:54:31;;;;;;;3.00;1.20;;;12.30;99.90;;;;;;5022741;28;20539;-61
2021/12/12 06:57:00;;;;;;;3.08;1.45;;;12.30;99.90;;;;;;5037169;28;20041;-60
2021/12/12 06:59:32;;;;;;;9.48;1.80;;;12.30;99.90;;;;;;5010794;28;20095;-61
2021/12/12 07:01:59;;;;;;;4.53;1.50;;;12.30;99.90;;;;;;5047124;28;20045;-61
2021/12/12 07:04:27;;;;;;;3.78;1.05;;;12.30;99.90;;;;;;5055113;28;20504;-61
2021/12/12 07:06:57;;;;;;;4.03;1.42;;;12.30;99.90;;;;;;5041084;28;20090;-60
2021/12/12 07:09:24;;;;;;;5.60;1.25;;;12.40;99.90;;;;;;5057086;28;20056;-60
2021/12/12 07:11:51;;;;;;;3.60;1.25;;;12.40;99.90;;;;;;5020807;28;20071;-60
2021/12/12 07:14:18;;;;;;;2.97;1.25;;;12.40;99.90;;;;;;5014579;28;20041;-61
2021/12/12 07:16:45;;;;;;;2.78;1.23;;;12.40;99.90;;;;;;5033668;28;20041;-61
2021/12/12 07:19:15;;;;;;;3.25;1.45;;;12.50;99.90;;;;;;5056489;28;20079;-61
2021/12/12 07:21:42;;;;;;;3.05;1.17;;;12.50;99.90;;;;;;5039086;28;20071;-61
2021/12/12 07:24:08;;;;;;;4.88;1.52;;;12.50;99.90;;;;;;5056995;28;20459;-60
2021/12/12 07:26:35;;;;;;;9.15;1.33;;;12.40;99.90;;;;;;5019275;28;20095;-61
2021/12/12 07:29:03;;;;;;;5.95;1.40;;;12.50;99.90;;;;;;5047070;28;20110;-60
2021/12/12 07:31:31;;;;;;;5.13;1.40;;;12.50;99.90;;;;;;5039373;28;20053;-61
2021/12/12 07:33:59;;;;;;;4.53;1.23;;;12.50;99.90;;;;;;5047334;28;20455;-60
2021/12/12 07:36:27;;;;;;;6.22;1.13;;;12.50;99.90;;;;;;5041014;28;20041;-60
2021/12/12 07:38:59;;;;;;;7.15;1.60;;;12.50;99.90;;;;;;5048497;28;20449;-61
2021/12/12 07:41:27;;;;;;;6.32;1.13;;;12.50;99.90;;;;;;5042313;28;20037;-61
2021/12/12 07:43:55;;;;;;;3.72;1.27;;;12.40;99.90;;;;;;5040711;28;20455;-59
2021/12/12 07:46:22;;;;;;;4.80;1.60;;;12.50;99.90;;;;;;5036207;28;20045;-59
2021/12/12 07:48:50;;;;;;;3.53;1.23;;;12.40;99.90;;;;;;5030567;28;20083;-59
2021/12/12 07:51:17;;;;;;;3.15;1.20;;;12.40;99.90;;;;;;5037362;28;20058;-60
2021/12/12 07:53:44;;;;;;;5.63;1.85;;;12.40;99.90;;;;;;5026025;28;20603;-60
2021/12/12 07:56:11;;;;;;;3.65;0.93;;;12.40;99.90;;;;;;5021082;28;20041;-59
2021/12/12 07:58:38;;;;;;;4.50;1.00;;;12.40;99.90;;;;;;5045784;28;20036;-59
2021/12/12 08:01:05;;;;;;;8.98;1.80;;;12.50;99.90;;;;;;5046361;28;20060;-60
2021/12/12 08:03:36;;;;;;;7.68;1.77;;;12.50;99.90;;;;;;5040317;28;20110;-60
2021/12/12 08:06:05;;;;;;;5.75;1.10;;;12.50;99.90;;;;;;5045506;28;20138;-60
2021/12/12 08:08:32;;;;;;;5.10;2.10;;;12.50;99.90;;;;;;5038003;28;20053;-59
2021/12/12 08:11:00;;;;;;;5.90;1.85;;;12.40;99.90;;;;;;5022373;28;20108;-59
2021/12/12 08:13:27;;;;;;;8.85;2.25;;;12.40;99.90;;;;;;5032224;28;20361;-60
2021/12/12 08:15:54;;;;;;;9.68;1.98;;;12.40;99.90;;;;;;5029163;28;20045;-60
2021/12/12 08:18:21;;;;;;;8.27;2.40;;;12.40;99.90;;;;;;5042244;28;20041;-59
2021/12/12 08:20:49;;;;;;;9.40;2.65;;;12.40;99.90;;;;;;4690212;28;10000366;-61
2021/12/12 08:23:16;;;;;;;7.13;2.05;;;12.30;99.90;;;;;;5039320;28;20579;-60
2021/12/12 08:25:44;;;;;;;8.05;2.25;;;12.40;99.90;;;;;;5037939;28;20761;-61
2021/12/12 08:28:12;;;;;;;6.57;3.33;;;12.40;99.90;;;;;;5023871;28;20088;-59
2021/12/12 08:30:39;;;;;;;7.47;2.08;;;12.40;99.90;;;;;;5042856;28;20076;-60
2021/12/12 08:33:06;;;;;;;7.90;3.65;;;12.40;99.90;;;;;;5043879;28;20049;-61
2021/12/12 08:35:33;;;;;;;11.68;3.97;;;12.40;99.90;;;;;;5040147;28;21188;-61
2021/12/12 08:38:01;;;;;;;10.77;3.50;;;12.40;99.90;;;;;;5049864;28;20049;-60
2021/12/12 08:40:29;;;;;;;8.85;3.92;;;12.40;99.90;;;;;;5034553;28;20088;-60
2021/12/12 08:42:56;;;;;;;10.80;2.95;;;12.40;99.90;;;;;;5047972;28;20095;-59
2021/12/12 08:45:29;;;;;;;13.38;4.05;;;12.40;99.90;;;;;;5042201;28;20578;-62
2021/12/12 08:47:58;;;;;;;6.15;2.28;;;12.50;99.90;;;;;;5033816;28;20064;-60
2021/12/12 08:50:27;;;;;;;11.45;2.95;;;12.40;99.90;;;;;;5034465;28;20535;-60
2021/12/12 08:52:54;;;;;;;6.43;2.55;;;12.40;99.90;;;;;;5055866;28;20459;-60
2021/12/12 08:55:32;;;;;;;9.35;3.00;;;12.40;99.90;;;;;;5039434;28;20063;-60
2021/12/12 08:58:03;;;;;;;8.27;2.78;;;12.40;99.90;;;;;;5043712;28;20045;-60
2021/12/12 09:00:38;;;;;;;12.82;2.63;;;12.40;99.90;;;;;;5022103;28;20139;-60
2021/12/12 09:03:06;;;;;;;8.05;2.08;;;12.40;99.90;;;;;;5050930;28;20081;-59
2021/12/12 09:05:34;;;;;;;13.10;2.97;;;12.40;99.90;;;;;;5036780;28;20064;-60
2021/12/12 09:08:44;;;;;;;12.18;3.03;;;12.40;99.90;;;;;;5032668;28;20045;-60
2021/12/12 09:11:16;;;;;;;13.27;2.95;;;12.40;99.90;;;;;;5039580;28;20087;-60
2021/12/12 09:13:49;;;;;;;19.30;4.85;;;12.40;99.90;;;;;;5018197;28;20115;-62
2021/12/12 09:16:32;;;;;;;17.13;4.85;;;12.40;99.90;;;;;;5041157;28;20044;-61
2021/12/12 09:19:25;;;;;;;13.57;2.75;;;12.40;99.90;;;;;;5020499;28;20158;-61
2021/12/12 09:22:18;;;;;;;9.40;2.88;;;12.40;99.90;;;;;;5046256;28;20048;-61
2021/12/12 09:25:04;;;;;;;16.88;2.90;;;12.40;99.90;;;;;;5044610;28;20100;-61
2021/12/12 09:27:44;;;;;;;11.75;2.35;;;12.50;99.90;;;;;;5046368;28;20049;-60
2021/12/12 09:30:20;;;;;;;15.65;2.63;;;12.50;99.90;;;;;;5048567;28;20045;-60
2021/12/12 09:32:50;;;;;;;10.45;2.97;;;12.50;99.90;;;;;;5035017;28;20087;-62
2021/12/12 09:35:24;;;;;;;15.30;3.15;;;12.50;99.90;;;;;;5046809;28;20080;-60
2021/12/12 09:38:20;;;;;;;15.63;2.90;;;12.60;99.90;;;;;;5045765;28;20596;-60
2021/12/12 09:41:01;;;;;;;15.13;2.40;;;12.60;99.90;;;;;;5038205;28;20111;-61
2021/12/12 09:44:02;;;;;;;15.88;3.28;;;12.60;99.90;;;;;;5054157;28;20123;-60
2021/12/12 09:53:12;;;;;;;17.23;3.65;;;12.70;99.90;;;;;;5043382;28;20474;-60
2021/12/12 09:56:05;;;;;;;17.80;4.22;;;12.70;99.90;;;;;;5044800;28;20054;-59
2021/12/12 09:58:52;;;;;;;15.60;3.95;;;12.70;99.90;;;;;;5044906;28;20052;-60
2021/12/12 10:01:27;;;;;;;9.23;2.90;;;12.70;99.90;;;;;;5039095;28;20076;-61
2021/12/12 10:04:31;;;;;;;24.52;5.65;;;12.70;99.90;;;;;;5027881;28;20059;-61
2021/12/12 10:07:03;;;;;;;19.35;4.65;;;12.60;99.90;;;;;;4966766;28;20049;-60
2021/12/12 10:09:36;;;;;;;15.55;4.03;;;12.50;99.90;;;;;;5047613;28;20134;-61
2021/12/12 10:12:16;;;;;;;18.58;4.40;;;12.50;99.90;;;;;;5035087;28;20130;-60
2021/12/12 10:14:57;;;;;;;21.38;4.88;;;12.50;99.90;;;;;;5048536;28;20045;-63
2021/12/12 10:17:32;;;;;;;22.77;5.15;;;12.50;99.90;;;;;;5036922;28;20126;-61
2021/12/12 10:20:02;;;;;;;18.10;5.13;;;12.60;99.90;;;;;;5050609;28;20081;-60
2021/12/12 10:23:03;;;;;;;16.05;5.07;;;12.60;99.90;;;;;;5042706;28;20049;-61
2021/12/12 10:25:35;;;;;;;23.85;5.88;;;12.60;99.90;;;;;;5047531;28;20117;-61
2021/12/12 10:28:16;;;;;;;22.42;5.45;;;12.70;99.90;;;;;;5018544;28;20053;-60
2021/12/12 10:30:50;;;;;;;17.25;4.65;;;12.70;99.90;;;;;;5021942;28;20442;-61
2021/12/12 10:33:21;;;;;;;32.63;6.65;;;12.70;99.90;;;;;;5037567;28;20056;-61
2021/12/12 10:35:52;;;;;;;19.92;4.85;;;12.80;99.90;;;;;;5047482;28;20048;-60
2021/12/12 10:38:28;;;;;;;21.25;4.97;;;12.80;99.90;;;;;;5012762;28;20179;-60
2021/12/12 10:40:59;;;;;;;22.02;4.47;;;12.80;99.90;;;;;;5039906;28;20044;-60
2021/12/12 10:43:38;;;;;;;23.00;4.72;;;12.80;99.80;;;;;;5030473;28;20049;-60
2021/12/12 10:46:11;;;;;;;28.85;7.28;;;12.90;99.90;;;;;;5024751;28;20100;-61
2021/12/12 10:48:52;;;;;;;24.52;4.90;;;12.90;99.90;;;;;;5022908;28;20168;-60
2021/12/12 10:51:21;;;;;;;20.95;4.93;;;13.00;99.90;;;;;;5044816;28;20140;-61
2021/12/12 10:54:02;;;;;;;23.33;4.18;;;13.00;99.90;;;;;;5041949;28;20049;-61
2021/12/12 10:56:54;;;;;;;18.67;4.32;;;13.00;99.30;;;;;;5038804;28;20074;-61
2021/12/12 10:59:33;;;;;;;15.00;4.53;;;13.00;99.50;;;;;;5037339;28;20058;-61
2021/12/12 11:02:11;;;;;;;18.52;4.18;;;13.10;99.50;;;;;;5038043;28;20115;-61
2021/12/12 11:04:45;;;;;;;27.65;5.93;;;13.10;99.40;;;;;;5039087;28;20077;-61
2021/12/12 11:07:33;;;;;;;22.63;4.28;;;13.10;99.60;;;;;;5042384;28;20053;-61
2021/12/12 11:10:24;;;;;;;19.67;4.35;;;13.10;99.40;;;;;;5038033;28;20110;-60
2021/12/12 11:12:59;;;;;;;18.85;3.97;;;13.10;99.50;;;;;;5003309;28;20044;-61
2021/12/12 11:16:04;;;;;;;14.70;4.18;;;13.10;99.40;;;;;;5035086;28;20607;-60
2021/12/12 11:18:43;;;;;;;14.18;3.40;;;13.20;99.20;;;;;;4965315;28;20054;-60
2021/12/12 11:21:40;;;;;;;16.58;3.50;;;13.20;99.10;;;;;;5007382;28;20144;-61
2021/12/12 11:24:14;;;;;;;21.42;4.00;;;13.20;98.90;;;;;;5045151;28;20175;-60
2021/12/12 11:26:57;;;;;;;11.95;4.13;;;13.20;99.30;;;;;;5036750;28;20538;-60
2021/12/12 11:29:28;;;;;;;28.23;5.77;;;13.20;98.90;;;;;;5031264;28;20052;-61
2021/12/12 11:32:11;;;;;;;15.13;4.15;;;13.30;98.70;;;;;;5023609;28;20682;-60
2021/12/12 11:34:47;;;;;;;15.75;3.95;;;13.30;99.20;;;;;;5031190;28;20503;-60
2021/12/12 11:37:52;;;;;;;19.08;5.30;;;13.30;99.10;;;;;;5036559;28;20045;-61
2021/12/12 11:40:32;;;;;;;16.30;4.00;;;13.30;99.00;;;;;;5033877;28;20087;-61
2021/12/12 11:43:04;;;;;;;18.13;3.80;;;13.30;99.00;;;;;;5048396;28;20870;-61
2021/12/12 11:45:43;;;;;;;18.10;5.10;;;13.20;98.80;;;;;;5034397;28;20053;-61
2021/12/12 11:48:36;;;;;;;20.52;4.43;;;13.20;98.80;;;;;;5033321;28;20090;-60
2021/12/12 11:51:13;;;;;;;19.88;3.72;;;13.20;98.90;;;;;;5027403;28;20543;-59
2021/12/12 11:53:55;;;;;;;26.83;4.88;;;13.20;99.00;;;;;;5045626;28;20500;-60
2021/12/12 11:56:32;;;;;;;21.17;4.00;;;13.20;98.60;;;;;;5032823;28;20048;-60
2021/12/12 11:59:09;;;;;;;17.83;5.05;;;13.20;98.40;;;;;;5017767;28;20072;-60
2021/12/12 12:01:51;;;;;;;20.08;4.32;;;13.30;98.80;;;;;;5036934;28;20067;-60
2021/12/12 12:04:21;;;;;;;16.85;3.88;;;13.40;98.90;;;;;;5048251;28;20052;-60
2021/12/12 12:07:16;;;;;;;18.23;4.38;;;13.40;98.80;;;;;;5036358;28;20561;-60
2021/12/12 12:09:46;;;;;;;16.35;4.28;;;13.40;98.70;;;;;;5031018;28;20605;-60
2021/12/12 12:12:44;;;;;;;18.42;3.75;;;13.40;98.70;;;;;;5036961;28;20095;-60
2021/12/12 12:15:53;;;;;;;15.05;3.72;;;13.40;98.70;;;;;;4993579;28;20050;-61
2021/12/12 12:18:35;;;;;;;19.77;3.78;;;13.40;98.30;;;;;;4978115;28;20694;-60
2021/12/12 12:21:25;;;;;;;23.45;6.28;;;13.40;98.50;;;;;;5024351;28;20080;-60
2021/12/12 12:26:51;;;;;;;25.30;4.03;;;13.40;98.50;;;;;;5032315;28;20063;-60
2021/12/12 12:29:27;;;;;;;14.65;3.53;;;13.40;98.50;;;;;;5046068;28;20124;-61
2021/12/12 12:32:12;;;;;;;25.50;6.93;;;13.40;98.50;;;;;;5038216;28;20045;-60
2021/12/12 12:35:17;;;;;;;13.85;3.20;;;13.40;98.30;;;;;;5041025;28;20084;-59
2021/12/12 12:38:24;;;;;;;19.60;3.72;;;13.50;98.70;;;;;;5038108;28;20051;-61
2021/12/12 12:41:29;;;;;;;14.70;4.93;;;13.50;98.30;;;;;;5039703;28;20126;-61
2021/12/12 12:44:15;;;;;;;;;;;13.50;98.60;;;;;;5040729;28;20516;-61
2021/12/12 12:47:39;;;;;;;10.85;3.28;;;13.50;98.40;;;;;;5032150;28;20412;-60
2021/12/12 12:50:33;;;;;;;12.55;3.17;;;13.60;98.10;;;;;;5048420;28;20052;-60
2021/12/12 12:53:21;;;;;;;15.27;2.90;;;13.60;98.00;;;;;;5034237;28;20079;-60
2021/12/12 12:56:23;;;;;;;14.27;3.90;;;13.60;98.40;;;;;;5048087;28;20072;-59
2021/12/12 12:59:29;;;;;;;10.95;3.15;;;13.60;98.20;;;;;;5034441;28;20584;-60
2021/12/12 13:02:05;;;;;;;9.73;2.72;;;13.60;97.80;;;;;;5017254;28;20068;-60
2021/12/12 13:04:47;;;;;;;14.60;3.10;;;13.60;98.20;;;;;;5041562;28;20879;-60
2021/12/12 13:07:14;;;;;;;13.98;3.72;;;13.60;98.30;;;;;;5037443;28;20612;-61
2021/12/12 13:10:01;;;;;;;15.18;2.92;;;13.60;98.20;;;;;;5046162;28;20044;-61
2021/12/12 13:12:32;;;;;;;9.07;3.45;;;13.60;98.20;;;;;;5040532;28;20500;-60
2021/12/12 13:15:33;;;;;;;9.70;3.38;;;13.70;97.90;;;;;;5046175;28;20106;-61
2021/12/12 13:18:28;;;;;;;12.60;2.10;;;13.70;97.80;;;;;;5037089;28;20057;-60
2021/12/12 13:21:19;;;;;;;7.60;2.25;;;13.70;97.50;;;;;;5041523;28;20099;-60
2021/12/12 13:24:05;;;;;;;12.00;3.03;;;13.70;97.20;;;;;;5038056;28;20103;-60
2021/12/12 13:26:45;;;;;;;10.00;3.08;;;13.80;97.80;;;;;;5046805;28;20055;-60
2021/12/12 13:29:51;;;;;;;7.75;2.40;;;13.80;97.50;;;;;;5034423;28;20042;-60
2021/12/12 13:32:25;;;;;;;13.85;2.70;;;13.80;97.20;;;;;;5032074;28;20056;-60
2021/12/12 13:35:15;;;;;;;13.23;3.42;;;13.80;97.90;;;;;;5038366;28;20057;-61
2021/12/12 13:38:00;;;;;;;8.70;2.35;;;13.80;97.30;;;;;;5025835;28;20037;-60
2021/12/12 13:40:43;;;;;;;10.98;3.65;;;13.80;97.40;;;;;;5041041;28;20482;-61
2021/12/12 13:43:33;;;;;;;5.50;1.73;;;13.80;97.10;;;;;;5033055;28;20115;-61
2021/12/12 13:46:06;;;;;;;9.07;2.72;;;13.80;97.10;;;;;;5036730;28;20527;-61